Time;durP1;ratioP1;P1;durP2;ratioP2;P2;SDS_P1;SDS_P2;PMS_P1;PMS_P2;Temp;Humidity;BMP_temperature;BMP_pressure;BME280_temperature;BME280_humidity;BME280_pressure;Samples;Min_cycle;Max_cycle;Signal;HPM_P1;HPM_P2
2022/07/08 00:02:23;;;;;;;8.50;6.20;;;;;;;16.25;66.39;100515.92;1692710;84;25584;-71
2022/07/08 00:04:49;;;;;;;8.93;5.95;;;;;;;16.27;66.01;100525.14;1692783;84;25420;-72
2022/07/08 00:07:15;;;;;;;7.40;5.62;;;;;;;16.26;65.94;100526.30;1692796;84;25408;-71
2022/07/08 00:09:41;;;;;;;12.33;6.17;;;;;;;16.27;66.08;100524.35;1692846;84;25395;-72
2022/07/08 00:12:08;;;;;;;10.05;5.45;;;;;;;16.29;66.11;100526.16;1692790;84;28161;-71
2022/07/08 00:14:34;;;;;;;9.60;5.58;;;;;;;16.29;66.00;100523.44;1692669;84;25546;-71
2022/07/08 00:17:00;;;;;;;6.17;5.45;;;;;;;16.30;66.09;100524.45;1692826;84;25454;-71
2022/07/08 00:19:26;;;;;;;9.25;5.35;;;;;;;16.30;66.07;100524.45;1692760;84;25506;-71
2022/07/08 00:21:53;;;;;;;8.25;5.42;;;;;;;16.33;66.06;100531.97;1692783;84;25629;-71
2022/07/08 00:24:19;;;;;;;8.70;5.67;;;;;;;16.35;66.04;100528.91;1692792;84;27968;-72
2022/07/08 00:26:46;;;;;;;8.13;5.70;;;;;;;16.36;66.04;100529.92;1692703;84;25453;-71
2022/07/08 00:29:12;;;;;;;9.10;5.17;;;;;;;16.37;66.09;100532.86;1684246;83;25504;-72
2022/07/08 00:31:38;;;;;;;14.13;5.53;;;;;;;16.37;65.92;100532.08;1677909;85;25650;-71
2022/07/08 00:34:04;;;;;;;7.87;5.30;;;;;;;16.36;65.96;100532.66;1677986;85;25445;-71
2022/07/08 00:36:31;;;;;;;5.62;5.00;;;;;;;16.36;65.96;100526.38;1677923;85;28278;-72
2022/07/08 00:38:57;;;;;;;8.88;5.12;;;;;;;16.36;65.96;100534.02;1677841;85;25393;-72
2022/07/08 00:41:23;;;;;;;8.78;5.20;;;;;;;16.36;66.11;100526.38;1677895;85;25481;-72
2022/07/08 00:43:49;;;;;;;10.30;5.47;;;;;;;16.35;65.98;100535.14;1677894;85;26029;-72
2022/07/08 00:46:16;;;;;;;10.28;5.00;;;;;;;16.35;66.04;100538.45;1677961;85;25452;-72
2022/07/08 00:48:43;;;;;;;5.50;4.85;;;;;;;16.34;66.20;100534.91;1677908;85;27317;-72
2022/07/08 00:51:13;;;;;;;12.05;5.62;;;;;;;16.33;66.29;100536.61;1677819;85;25765;-71
2022/07/08 00:53:42;;;;;;;;;;;;;;;16.31;66.17;100527.97;1680424;85;25424;-72
2022/07/08 00:56:10;;;;;;;16.25;5.87;;;;;;;16.31;66.59;100531.52;1677972;85;25616;-72
2022/07/08 00:58:40;;;;;;;8.78;5.20;;;;;;;16.29;66.32;100529.68;1677970;85;25602;-71
2022/07/08 01:01:06;;;;;;;;;;;;;;;16.29;66.24;100529.68;1680404;85;27850;-71
2022/07/08 01:03:32;;;;;;;6.90;5.00;;;;;;;16.28;66.47;100532.20;1677861;85;25594;-71
2022/07/08 01:05:58;;;;;;;8.48;5.67;;;;;;;16.25;66.27;100528.20;1677947;85;25482;-71
2022/07/08 01:08:26;;;;;;;9.85;5.45;;;;;;;16.24;66.24;100529.91;1677823;85;25637;-71
2022/07/08 01:10:53;;;;;;;8.83;5.87;;;;;;;16.23;66.41;100523.66;1677965;85;25594;-71
2022/07/08 01:13:20;;;;;;;8.35;5.53;;;;;;;16.20;66.48;100523.55;1677906;85;28062;-74
2022/07/08 01:15:46;;;;;;;8.28;5.40;;;;;;;16.18;66.48;100526.62;1677778;85;25469;-71
2022/07/08 01:18:30;;;;;;;11.65;6.67;;;;;;;16.16;66.52;100526.17;1677926;85;25441;-71
2022/07/08 01:20:57;;;;;;;7.33;5.33;;;;;;;16.15;66.48;100523.78;1677853;85;25446;-71
2022/07/08 01:23:24;;;;;;;10.90;6.45;;;;;;;16.13;66.52;100524.12;1677947;85;25577;-73
2022/07/08 01:25:53;;;;;;;7.70;5.28;;;;;;;16.13;66.62;100524.12;1677919;85;27304;-73
2022/07/08 01:28:19;;;;;;;6.85;5.95;;;;;;;16.12;66.78;100525.24;1678584;84;25621;-72
2022/07/08 01:30:45;;;;;;;11.88;5.95;;;;;;;16.11;66.76;100524.25;1692767;84;25689;-72
2022/07/08 01:33:12;;;;;;;9.78;6.30;;;;;;;16.09;66.81;100525.95;1692815;84;25591;-71
2022/07/08 01:35:38;;;;;;;9.08;5.55;;;;;;;16.09;66.92;100522.41;1692884;84;25618;-71
2022/07/08 01:38:04;;;;;;;9.73;5.40;;;;;;;16.08;66.91;100520.83;1692849;84;27416;-72
2022/07/08 01:40:30;;;;;;;7.20;5.70;;;;;;;16.08;67.05;100519.47;1692802;83;25690;-72
2022/07/08 01:42:58;;;;;;;9.38;5.85;;;;;;;16.07;67.15;100522.73;1692870;84;25502;-72
2022/07/08 01:45:24;;;;;;;8.43;6.10;;;;;;;16.08;67.21;100521.62;1692814;84;25463;-72
2022/07/08 01:47:51;;;;;;;9.45;5.83;;;;;;;16.09;67.39;100528.67;1692914;84;25664;-72
2022/07/08 01:50:17;;;;;;;9.68;6.53;;;;;;;16.08;67.41;100531.74;1694252;84;27409;-72
2022/07/08 01:52:44;;;;;;;8.88;6.00;;;;;;;16.09;67.55;100524.58;1692797;84;25514;-72
2022/07/08 01:55:10;;;;;;;8.15;5.78;;;;;;;16.11;67.67;100527.77;1692820;84;25470;-72
2022/07/08 01:57:36;;;;;;;11.30;6.87;;;;;;;16.12;67.81;100527.19;1692790;84;25432;-72
2022/07/08 02:00:05;;;;;;;9.48;6.40;;;;;;;16.12;67.91;100532.06;1692886;84;25468;-72
2022/07/08 02:02:32;;;;;;;9.38;6.65;;;;;;;16.14;67.95;100531.18;1692980;84;29647;-72
2022/07/08 02:04:58;;;;;;;9.85;6.45;;;;;;;16.15;68.00;100535.48;1692764;83;25812;-72
2022/07/08 02:07:24;;;;;;;13.83;6.58;;;;;;;16.17;67.96;100537.88;1692857;84;25496;-72
2022/07/08 02:09:50;;;;;;;10.23;6.90;;;;;;;16.17;67.96;100533.20;1692771;83;25625;-72
2022/07/08 02:12:18;;;;;;;8.70;6.20;;;;;;;16.18;67.86;100533.44;1692859;84;25598;-72
2022/07/08 02:14:49;;;;;;;8.48;6.42;;;;;;;16.19;67.78;100539.14;1692919;84;28122;-71
2022/07/08 02:17:18;;;;;;;8.98;7.05;;;;;;;16.21;67.74;100534.70;1691971;84;25614;-70
2022/07/08 02:19:45;;;;;;;10.53;6.78;;;;;;;16.21;67.94;100539.59;1692996;84;25545;-71
2022/07/08 02:22:12;;;;;;;9.93;7.00;;;;;;;16.21;67.76;100544.26;1692803;84;25623;-72
2022/07/08 02:24:38;;;;;;;10.65;6.35;;;;;;;16.20;67.84;100540.72;1692862;83;25563;-71
2022/07/08 02:27:06;;;;;;;11.43;7.42;;;;;;;16.21;67.92;100539.59;1692831;84;27331;-71
2022/07/08 02:29:33;;;;;;;10.75;7.17;;;;;;;16.22;67.90;100545.83;1686885;84;25475;-71
2022/07/08 02:32:00;;;;;;;14.45;6.97;;;;;;;16.23;67.95;100549.59;1677997;85;25425;-71
2022/07/08 02:34:27;;;;;;;11.40;7.25;;;;;;;16.24;67.91;100544.92;1677970;85;25543;-71
2022/07/08 02:36:54;;;;;;;8.20;6.90;;;;;;;16.24;67.93;100546.28;1677985;85;25623;-72
2022/07/08 02:39:21;;;;;;;10.32;6.85;;;;;;;16.24;68.04;100551.19;1677964;85;27390;-71
2022/07/08 02:41:48;;;;;;;9.40;6.67;;;;;;;16.25;68.25;100551.41;1677887;85;25520;-71
2022/07/08 02:44:15;;;;;;;11.35;7.37;;;;;;;16.25;68.15;100548.67;1677983;85;25416;-71
2022/07/08 02:46:41;;;;;;;8.68;6.78;;;;;;;16.25;68.12;100551.98;1677954;85;25461;-71
2022/07/08 02:49:09;;;;;;;9.85;7.47;;;;;;;16.24;68.20;100555.29;1677993;85;25450;-71
2022/07/08 02:51:36;;;;;;;11.28;7.08;;;;;;;16.25;68.23;100551.98;1677990;85;28022;-72
2022/07/08 02:54:04;;;;;;;12.78;6.97;;;;;;;16.24;68.31;100549.83;1677922;85;25674;-72
2022/07/08 02:56:34;;;;;;;10.98;6.47;;;;;;;16.25;68.26;100553.34;1677952;85;25420;-72
2022/07/08 02:59:03;;;;;;;11.43;7.03;;;;;;;16.25;68.33;100547.89;1678020;85;26006;-71
2022/07/08 03:01:29;;;;;;;10.30;7.03;;;;;;;16.23;68.44;100552.89;1678131;85;25458;-71
2022/07/08 03:03:55;;;;;;;8.93;6.72;;;;;;;16.24;68.47;100561.29;1677987;85;28088;-71
2022/07/08 03:06:21;;;;;;;15.00;7.47;;;;;;;16.23;68.49;100563.23;1677884;85;25598;-71
2022/07/08 03:08:48;;;;;;;9.73;6.97;;;;;;;16.23;68.63;100561.88;1677943;85;25711;-72
2022/07/08 03:11:14;;;;;;;9.95;7.35;;;;;;;16.24;68.69;100562.66;1677934;85;25968;-72
2022/07/08 03:13:40;;;;;;;9.63;6.70;;;;;;;16.23;68.75;100561.88;1677997;85;25555;-72
2022/07/08 03:16:07;;;;;;;11.48;6.53;;;;;;;16.23;68.84;100565.97;1677903;85;27276;-71
2022/07/08 03:18:35;;;;;;;10.20;6.60;;;;;;;16.24;68.77;100571.66;1677892;85;25639;-72
2022/07/08 03:21:07;;;;;;;9.73;6.62;;;;;;;16.25;68.79;100575.97;1677948;85;25615;-72
2022/07/08 03:23:33;;;;;;;10.50;7.25;;;;;;;16.26;69.00;100568.59;1677972;85;25554;-72
2022/07/08 03:26:01;;;;;;;10.10;7.80;;;;;;;16.25;68.91;100572.45;1677974;85;25577;-71
2022/07/08 03:28:28;;;;;;;11.48;7.05;;;;;;;16.24;68.87;100574.94;1677973;85;27968;-71
2022/07/08 03:30:54;;;;;;;10.13;7.17;;;;;;;16.25;69.03;100580.64;1677814;84;25594;-71
2022/07/08 03:33:21;;;;;;;9.90;7.03;;;;;;;16.24;69.11;100580.39;1677960;85;25465;-72
2022/07/08 03:35:47;;;;;;;8.05;6.95;;;;;;;16.25;69.19;100587.46;1677883;85;25444;-72
2022/07/08 03:38:13;;;;;;;10.00;7.10;;;;;;;16.27;69.31;100587.13;1677999;85;25480;-72
2022/07/08 03:43:23;;;;;;;11.03;7.00;;;;;;;16.28;69.40;100587.33;1678335;85;25577;-72
2022/07/08 03:45:49;;;;;;;10.32;6.50;;;;;;;16.29;69.40;100595.19;1678257;85;25600;-71
2022/07/08 03:48:15;;;;;;;10.45;7.42;;;;;;;16.31;69.51;100597.03;1678409;85;25423;-71
2022/07/08 03:50:41;;;;;;;10.40;6.90;;;;;;;16.34;69.66;100600.42;1678331;85;25586;-71
2022/07/08 03:53:07;;;;;;;12.93;7.47;;;;;;;16.37;69.81;100600.32;1678283;85;27387;-72
2022/07/08 03:55:33;;;;;;;11.43;7.67;;;;;;;16.41;69.89;100602.59;1678109;85;25630;-72
2022/07/08 03:57:59;;;;;;;11.97;7.62;;;;;;;16.44;69.80;100601.33;1678187;85;25644;-72
2022/07/08 04:00:26;;;;;;;13.03;7.83;;;;;;;16.47;69.83;100603.17;1678175;85;25415;-72
2022/07/08 04:02:52;;;;;;;11.63;8.03;;;;;;;16.50;69.66;100602.47;1678047;85;25463;-72
2022/07/08 04:05:18;;;;;;;9.38;7.53;;;;;;;16.52;69.78;100598.85;1677936;85;27367;-72
2022/07/08 04:07:45;;;;;;;10.15;6.72;;;;;;;16.54;69.69;100600.67;1677865;85;25378;-72
2022/07/08 04:10:11;;;;;;;11.40;7.33;;;;;;;16.58;69.79;100601.56;1677937;85;25461;-73
2022/07/08 04:12:37;;;;;;;14.65;7.42;;;;;;;16.63;69.86;100609.52;1677881;85;25461;-72
2022/07/08 04:15:04;;;;;;;11.12;7.28;;;;;;;16.66;69.62;100612.16;1677947;83;25633;-72
2022/07/08 04:17:30;;;;;;;13.72;7.42;;;;;;;16.68;69.69;100613.39;1677941;85;27307;-72
2022/07/08 04:19:56;;;;;;;12.55;7.53;;;;;;;16.71;69.64;100614.08;1677874;85;25452;-72
2022/07/08 04:22:22;;;;;;;11.85;8.40;;;;;;;16.74;69.69;100620.80;1677902;83;29853;-72
2022/07/08 04:24:48;;;;;;;14.15;7.83;;;;;;;16.79;69.87;100621.94;1677871;85;25622;-73
2022/07/08 04:27:14;;;;;;;13.80;8.83;;;;;;;16.83;69.87;100620.09;1677925;85;25502;-72
2022/07/08 04:29:40;;;;;;;15.78;10.53;;;;;;;16.87;69.84;100623.75;1679783;84;27424;-72
2022/07/08 04:32:07;;;;;;;12.15;7.67;;;;;;;16.93;70.09;100616.14;1692643;84;25554;-72
2022/07/08 04:34:33;;;;;;;12.30;7.37;;;;;;;16.99;70.19;100622.95;1692752;84;25742;-72
2022/07/08 04:36:59;;;;;;;12.55;7.53;;;;;;;17.07;70.27;100623.97;1692653;84;25599;-72
2022/07/08 04:39:25;;;;;;;11.08;7.92;;;;;;;17.15;70.40;100625.78;1692784;84;25417;-72
2022/07/08 04:41:52;;;;;;;11.00;7.12;;;;;;;17.23;70.40;100627.59;1692778;84;27422;-72
2022/07/08 04:44:18;;;;;;;10.38;8.20;;;;;;;17.32;70.33;100631.55;1692700;84;25680;-73
2022/07/08 04:46:44;;;;;;;13.28;7.83;;;;;;;17.37;70.30;100624.47;1692780;84;25480;-73
2022/07/08 04:49:10;;;;;;;14.98;7.65;;;;;;;17.46;70.30;100626.47;1692722;84;25465;-73
2022/07/08 04:51:37;;;;;;;8.45;7.28;;;;;;;17.55;70.42;100629.05;1692803;83;25623;-72
2022/07/08 04:54:03;;;;;;;9.75;7.80;;;;;;;17.67;70.67;100629.03;1692769;84;27389;-73
2022/07/08 04:56:29;;;;;;;11.73;8.70;;;;;;;17.79;70.53;100631.47;1692624;84;25634;-73
2022/07/08 04:58:55;;;;;;;9.10;7.25;;;;;;;17.89;70.22;100626.87;1692757;84;25588;-73
2022/07/08 05:01:21;;;;;;;12.05;8.18;;;;;;;17.97;69.87;100630.03;1692703;84;26274;-73
2022/07/08 05:03:47;;;;;;;10.68;8.33;;;;;;;18.04;69.94;100624.73;1692803;84;25551;-73
2022/07/08 05:06:14;;;;;;;14.68;8.90;;;;;;;18.15;69.78;100622.30;1692747;84;27301;-69
2022/07/08 05:08:39;;;;;;;10.03;8.75;;;;;;;18.25;69.77;100623.69;1692802;84;25464;-66
2022/07/08 05:11:05;;;;;;;11.63;8.23;;;;;;;18.39;69.58;100631.46;1692880;84;25636;-66
2022/07/08 05:13:32;;;;;;;14.47;9.43;;;;;;;18.52;69.38;100631.59;1692857;84;26156;-66
2022/07/08 05:15:58;;;;;;;11.25;8.70;;;;;;;18.64;69.03;100634.81;1692876;84;25475;-65
2022/07/08 05:18:24;;;;;;;10.68;7.78;;;;;;;18.73;68.68;100634.62;1692873;84;27329;-66
2022/07/08 05:20:50;;;;;;;12.33;7.87;;;;;;;18.85;68.29;100640.83;1692788;84;25798;-66
2022/07/08 05:23:17;;;;;;;14.50;8.00;;;;;;;18.93;68.22;100637.66;1692888;84;25635;-65
2022/07/08 05:25:42;;;;;;;10.80;7.83;;;;;;;19.04;68.00;100640.06;1662692;84;25632;-67
2022/07/08 05:28:09;;;;;;;12.35;7.05;;;;;;;19.13;67.75;100641.23;1692926;84;25427;-66
2022/07/08 05:30:35;;;;;;;12.35;7.62;;;;;;;19.24;67.59;100640.11;1692784;84;27364;-66
2022/07/08 05:33:01;;;;;;;10.05;7.17;;;;;;;19.35;67.21;100640.33;1692682;84;25601;-66
2022/07/08 05:35:28;;;;;;;13.43;6.80;;;;;;;19.44;66.96;100639.52;1692881;84;25602;-66
2022/07/08 05:37:54;;;;;;;14.23;6.75;;;;;;;19.55;66.86;100640.55;1692879;84;26092;-65
2022/07/08 05:40:20;;;;;;;11.33;7.03;;;;;;;19.70;66.63;100642.19;1692898;84;25431;-66
2022/07/08 05:42:46;;;;;;;11.43;7.10;;;;;;;19.82;66.36;100639.33;1692889;84;27562;-66
2022/07/08 05:45:13;;;;;;;9.33;6.90;;;;;;;19.95;66.04;100643.51;1692791;84;25642;-66
2022/07/08 05:47:40;;;;;;;8.70;6.97;;;;;;;20.07;65.95;100638.39;1692884;84;25641;-67
2022/07/08 05:50:09;;;;;;;10.85;6.22;;;;;;;20.21;65.74;100639.25;1692811;84;25471;-66
2022/07/08 05:52:35;;;;;;;8.65;4.78;;;;;;;20.37;65.13;100644.61;1693052;84;25456;-66
2022/07/08 05:55:01;;;;;;;9.88;5.05;;;;;;;20.56;64.71;100642.95;1692849;84;27374;-66
2022/07/08 05:57:28;;;;;;;7.05;4.70;;;;;;;20.76;64.09;100645.84;1692775;84;25576;-66
2022/07/08 05:59:54;;;;;;;6.83;4.28;;;;;;;20.92;63.10;100645.67;1692845;83;25597;-65
2022/07/08 06:02:20;;;;;;;6.03;3.95;;;;;;;21.06;62.44;100650.58;1692821;84;26061;-65
2022/07/08 06:04:46;;;;;;;7.40;3.72;;;;;;;21.17;61.53;100650.14;1692897;84;25472;-65
2022/07/08 06:07:12;;;;;;;9.95;4.85;;;;;;;21.32;61.13;100650.32;1692808;84;27439;-65
2022/07/08 06:09:38;;;;;;;7.97;3.90;;;;;;;21.50;60.81;100656.09;1692798;84;25403;-65
2022/07/08 06:12:06;;;;;;;6.17;3.30;;;;;;;21.70;60.48;100652.59;1692813;84;25638;-66
2022/07/08 06:14:32;;;;;;;4.20;3.20;;;;;;;21.91;59.85;100656.94;1692814;84;25559;-66
2022/07/08 06:16:58;;;;;;;4.12;3.02;;;;;;;22.12;59.27;100666.61;1692801;84;25562;-66
2022/07/08 06:19:24;;;;;;;3.15;2.50;;;;;;;22.34;58.84;100665.66;1692812;84;27538;-64
2022/07/08 06:21:51;;;;;;;3.87;2.35;;;;;;;22.65;58.41;100668.27;1692733;84;25415;-65
2022/07/08 06:24:18;;;;;;;3.85;1.90;;;;;;;22.91;57.55;100670.80;1692864;84;25469;-65
2022/07/08 06:26:44;;;;;;;4.03;2.05;;;;;;;23.07;56.48;100670.55;1692767;84;25580;-65
2022/07/08 06:29:11;;;;;;;5.12;2.40;;;;;;;23.20;55.14;100666.08;1692897;84;25419;-65
2022/07/08 06:31:38;;;;;;;3.22;2.15;;;;;;;23.27;54.68;100667.49;1683460;84;27508;-65
2022/07/08 06:34:05;;;;;;;6.28;3.85;;;;;;;23.29;53.63;100670.08;1677931;85;25567;-65
2022/07/08 06:36:32;;;;;;;6.65;3.02;;;;;;;23.33;53.54;100669.28;1677969;85;25560;-65
2022/07/08 06:38:59;;;;;;;4.60;2.30;;;;;;;23.37;53.44;100670.11;1677984;85;25589;-65
2022/07/08 06:41:26;;;;;;;12.78;7.33;;;;;;;23.42;53.33;100671.12;1677987;85;25418;-65
2022/07/08 06:43:52;;;;;;;4.58;2.25;;;;;;;23.49;53.09;100670.55;1677998;85;27566;-66
2022/07/08 06:46:18;;;;;;;3.22;1.75;;;;;;;23.55;52.35;100669.59;1678021;85;25878;-65
2022/07/08 06:48:44;;;;;;;2.65;1.92;;;;;;;23.58;51.99;100671.59;1678008;85;25634;-66
2022/07/08 06:51:11;;;;;;;5.75;2.58;;;;;;;23.59;51.79;100672.37;1677963;85;25547;-65
2022/07/08 06:56:23;;;;;;;3.02;1.70;;;;;;;23.62;50.96;100676.52;1677995;85;27334;-66
2022/07/08 06:58:50;;;;;;;4.40;1.60;;;;;;;23.63;50.46;100671.78;1677862;85;25627;-66
2022/07/08 07:01:16;;;;;;;3.30;1.62;;;;;;;23.64;50.21;100675.53;1677936;85;25552;-67
2022/07/08 07:03:42;;;;;;;5.12;1.80;;;;;;;23.64;49.78;100671.39;1677940;85;26179;-66
2022/07/08 07:06:08;;;;;;;2.30;1.60;;;;;;;23.69;50.00;100678.52;1678059;83;25392;-66
2022/07/08 07:08:34;;;;;;;2.67;2.00;;;;;;;23.77;49.24;100677.94;1678078;85;27988;-66
2022/07/08 07:11:00;;;;;;;4.97;2.10;;;;;;;23.80;49.58;100679.35;1677896;85;25628;-65
2022/07/08 07:13:26;;;;;;;3.50;1.87;;;;;;;23.89;49.52;100678.20;1678129;85;25593;-65
2022/07/08 07:15:52;;;;;;;4.10;2.10;;;;;;;23.96;49.16;100674.87;1677944;85;25962;-66
2022/07/08 07:18:18;;;;;;;6.05;5.37;;;;;;;24.01;48.66;100672.33;1677995;85;25550;-66
2022/07/08 07:20:44;;;;;;;7.55;2.47;;;;;;;24.06;48.70;100677.47;1677930;85;29478;-66
2022/07/08 07:23:10;;;;;;;3.62;1.98;;;;;;;24.11;48.23;100674.31;1677924;85;25541;-66
2022/07/08 07:25:36;;;;;;;6.28;2.60;;;;;;;24.17;48.54;100671.95;1678012;85;25437;-67
2022/07/08 07:28:02;;;;;;;6.78;2.00;;;;;;;24.28;48.23;100681.63;1675641;84;26086;-66
2022/07/08 07:30:28;;;;;;;4.35;2.10;;;;;;;24.35;47.76;100675.52;1678043;85;25655;-66
2022/07/08 07:32:54;;;;;;;6.28;2.27;;;;;;;24.37;48.10;100672.36;1677920;85;27422;-66
2022/07/08 07:35:20;;;;;;;4.50;2.40;;;;;;;24.44;48.17;100675.13;1677912;85;25543;-66
2022/07/08 07:37:47;;;;;;;4.90;2.40;;;;;;;24.51;47.68;100675.72;1678026;85;25615;-66
2022/07/08 07:40:13;;;;;;;5.05;2.10;;;;;;;24.57;47.46;100676.95;1677879;85;25522;-66
2022/07/08 07:42:39;;;;;;;6.05;2.17;;;;;;;24.60;47.39;100681.09;1678010;85;25444;-66
2022/07/08 07:45:07;;;;;;;4.10;1.85;;;;;;;24.72;47.21;100678.52;1677971;85;27381;-66
2022/07/08 07:47:33;;;;;;;5.60;2.20;;;;;;;25.01;47.67;100676.28;1675396;85;25431;-66
2022/07/08 07:49:59;;;;;;;7.33;2.20;;;;;;;25.37;47.33;100673.43;1677981;85;25619;-66
2022/07/08 07:52:25;;;;;;;5.37;2.37;;;;;;;25.72;46.65;100669.72;1677910;85;25440;-66
2022/07/08 07:54:51;;;;;;;5.08;2.45;;;;;;;25.83;45.50;100669.64;1677970;85;25558;-67
2022/07/08 07:57:18;;;;;;;6.55;2.27;;;;;;;25.97;45.64;100674.37;1677932;84;27621;-66
2022/07/08 07:59:45;;;;;;;5.50;2.42;;;;;;;26.14;45.43;100673.45;1677878;85;25668;-66
2022/07/08 08:02:11;;;;;;;6.00;2.40;;;;;;;26.44;44.51;100671.45;1677955;85;25638;-66
2022/07/08 08:04:38;;;;;;;10.75;2.40;;;;;;;26.62;44.54;100671.30;1677920;85;25461;-66
2022/07/08 08:07:04;;;;;;;8.00;2.33;;;;;;;26.79;44.24;100670.17;1677974;85;25472;-66
2022/07/08 08:09:30;;;;;;;7.53;2.47;;;;;;;26.91;43.67;100671.03;1677975;85;28017;-66
2022/07/08 08:11:56;;;;;;;7.83;3.90;;;;;;;26.91;43.32;100676.58;1677966;85;25459;-66
2022/07/08 08:14:23;;;;;;;8.00;2.90;;;;;;;26.92;42.83;100671.23;1677977;85;25436;-67
2022/07/08 08:16:49;;;;;;;6.35;2.75;;;;;;;26.92;43.19;100675.97;1677891;85;25633;-66
2022/07/08 08:19:15;;;;;;;6.00;2.37;;;;;;;26.93;42.28;100672.01;1677982;85;25622;-67
2022/07/08 08:21:41;;;;;;;5.55;2.27;;;;;;;26.75;42.40;100671.59;1678020;85;27437;-66
2022/07/08 08:24:08;;;;;;;13.00;6.17;;;;;;;26.66;42.70;100674.05;1677939;85;25870;-66
2022/07/08 08:26:34;;;;;;;8.78;2.60;;;;;;;26.68;42.73;100670.28;1677971;85;25634;-64
2022/07/08 08:29:01;;;;;;;6.80;3.17;;;;;;;26.79;42.86;100675.11;1678000;85;25609;-64
2022/07/08 08:31:27;;;;;;;6.00;2.42;;;;;;;26.98;42.78;100675.72;1677841;84;25637;-65
2022/07/08 08:33:53;;;;;;;6.55;2.17;;;;;;;27.07;42.62;100664.13;1677905;85;28036;-65
2022/07/08 08:36:19;;;;;;;7.00;1.98;;;;;;;27.23;41.80;100666.34;1677815;85;25455;-65
2022/07/08 08:38:46;;;;;;;4.70;1.98;;;;;;;27.39;41.65;100670.11;1677947;85;25567;-65
2022/07/08 08:41:13;;;;;;;5.05;2.20;;;;;;;27.72;42.06;100665.52;1677952;85;26119;-64
2022/07/08 08:43:39;;;;;;;4.37;2.20;;;;;;;28.29;41.68;100668.09;1678114;85;25393;-64
2022/07/08 08:46:05;;;;;;;4.15;2.27;;;;;;;28.49;40.12;100668.17;1652941;85;27443;-64
2022/07/08 08:48:37;;;;;;;7.08;1.85;;;;;;;28.71;39.76;100671.98;1678000;85;25673;-64
2022/07/08 08:51:09;;;;;;;4.28;1.80;;;;;;;28.58;38.13;100672.60;1678117;85;25420;-65
2022/07/08 08:53:45;;;;;;;4.37;1.80;;;;;;;28.43;38.01;100666.45;1678128;85;25439;-64
2022/07/08 08:56:15;;;;;;;6.12;1.90;;;;;;;28.67;38.08;100666.48;1678115;85;25661;-64
2022/07/08 08:58:47;;;;;;;5.75;2.30;;;;;;;28.68;37.15;100659.11;1678102;85;27316;-64
2022/07/08 09:01:18;;;;;;;3.87;2.05;;;;;;;28.49;37.42;100654.27;1678017;85;25629;-65
2022/07/08 09:03:45;;;;;;;2.58;1.85;;;;;;;28.43;37.60;100655.33;1678118;85;25729;-65
2022/07/08 09:06:12;;;;;;;3.65;2.00;;;;;;;28.31;37.19;100663.67;1677976;85;27714;-66
2022/07/08 09:08:39;;;;;;;6.03;2.10;;;;;;;28.06;37.60;100652.97;1678053;85;25398;-66
2022/07/08 09:11:07;;;;;;;6.08;2.35;;;;;;;27.99;37.56;100653.66;1678017;85;28131;-65
2022/07/08 09:13:34;;;;;;;4.37;2.80;;;;;;;27.78;38.53;100659.69;1677995;85;25616;-66
2022/07/08 09:16:00;;;;;;;5.80;2.70;;;;;;;27.58;38.02;100657.59;1678074;85;25560;-65
2022/07/08 09:18:30;;;;;;;6.00;3.30;;;;;;;27.19;38.86;100668.56;1677936;85;25683;-65
2022/07/08 09:20:59;;;;;;;4.17;3.35;;;;;;;26.98;40.24;100677.11;1677411;85;25463;-65
2022/07/08 09:23:33;;;;;;;3.52;3.02;;;;;;;26.72;41.71;100677.18;1678167;85;27830;-65
2022/07/08 09:26:03;;;;;;;9.05;3.50;;;;;;;26.55;42.94;100676.89;1677992;85;25451;-65
2022/07/08 09:28:34;;;;;;;6.97;3.83;;;;;;;26.78;44.88;100672.17;1677959;85;25637;-66
2022/07/08 09:31:07;;;;;;;3.50;3.20;;;;;;;27.20;44.43;100677.66;1678049;85;26462;-66
2022/07/08 09:33:34;;;;;;;7.10;3.85;;;;;;;27.38;43.02;100669.17;1692318;84;25455;-66
2022/07/08 09:36:04;;;;;;;5.78;3.83;;;;;;;27.54;43.06;100672.11;1692836;84;27298;-65
2022/07/08 09:38:35;;;;;;;6.62;3.90;;;;;;;27.52;42.22;100668.97;1692749;84;25585;-67
2022/07/08 09:41:12;;;;;;;4.20;3.77;;;;;;;27.26;41.50;100663.52;1692829;84;25526;-67
2022/07/08 09:43:49;;;;;;;4.03;3.62;;;;;;;27.09;41.72;100665.88;1692767;84;25653;-65
2022/07/08 09:46:16;;;;;;;7.47;3.80;;;;;;;27.07;42.40;100666.30;1692642;84;25501;-66
2022/07/08 09:48:43;;;;;;;8.30;4.33;;;;;;;27.08;42.31;100668.48;1692872;84;27370;-66
2022/07/08 09:51:10;;;;;;;8.48;3.90;;;;;;;27.07;42.29;100663.52;1692741;84;25635;-65
2022/07/08 09:53:40;;;;;;;4.55;4.15;;;;;;;27.02;42.61;100662.58;1692775;84;25461;-65
2022/07/08 09:56:08;;;;;;;5.25;4.30;;;;;;;26.97;42.59;100668.59;1692741;84;25889;-66
2022/07/08 09:58:36;;;;;;;6.15;4.78;;;;;;;26.68;42.95;100671.67;1692829;84;25535;-66
2022/07/08 10:01:04;;;;;;;6.50;4.67;;;;;;;26.45;44.08;100673.61;1692887;84;27591;-66
2022/07/08 10:03:30;;;;;;;7.17;5.40;;;;;;;26.22;45.06;100674.17;1692739;83;25605;-67
2022/07/08 10:05:57;;;;;;;5.55;4.95;;;;;;;25.97;46.35;100680.69;1692688;84;25502;-66
2022/07/08 10:08:23;;;;;;;5.10;4.70;;;;;;;25.66;46.84;100676.86;1692593;84;26456;-67
2022/07/08 10:10:53;;;;;;;6.00;3.95;;;;;;;25.38;47.44;100681.34;1692664;82;25653;-65
2022/07/08 10:13:21;;;;;;;4.97;4.05;;;;;;;25.05;47.65;100679.24;1692770;84;27245;-65
2022/07/08 10:15:53;;;;;;;5.33;4.35;;;;;;;24.76;48.18;100673.75;1692571;84;25735;-65
2022/07/08 10:18:33;;;;;;;5.67;3.80;;;;;;;24.60;48.86;100676.12;1692666;84;25514;-65
2022/07/08 10:21:02;;;;;;;4.10;3.70;;;;;;;24.33;48.72;100677.89;1687341;84;26310;-65
2022/07/08 10:23:49;;;;;;;6.67;4.15;;;;;;;24.01;49.13;100673.70;1692662;84;25631;-66
2022/07/08 10:26:19;;;;;;;7.37;5.03;;;;;;;23.74;49.47;100662.95;1692139;84;27326;-65
2022/07/08 10:28:45;;;;;;;8.35;4.40;;;;;;;23.52;49.93;100665.45;1692477;84;25583;-65
2022/07/08 10:31:23;;;;;;;3.67;3.37;;;;;;;23.34;50.56;100674.42;1670444;84;25440;-65
2022/07/08 10:33:51;;;;;;;4.20;3.90;;;;;;;23.17;50.89;100675.13;1672992;84;25625;-68
2022/07/08 10:36:22;;;;;;;5.40;3.80;;;;;;;22.94;51.68;100670.64;1671383;85;25673;-66
2022/07/08 10:38:50;;;;;;;3.55;3.25;;;;;;;22.76;52.11;100667.75;1671341;85;27378;-66
2022/07/08 10:41:22;;;;;;;3.30;3.00;;;;;;;22.71;53.48;100674.44;1671596;85;25513;-65
2022/07/08 10:44:00;;;;;;;3.90;3.40;;;;;;;22.62;53.56;100673.95;1671374;85;25709;-67
2022/07/08 10:46:25;;;;;;;6.45;4.60;;;;;;;22.57;53.96;100672.33;1671122;85;25723;-66
2022/07/08 10:49:01;;;;;;;3.85;3.52;;;;;;;22.61;54.66;100659.98;1671439;85;25686;-66
2022/07/08 10:51:37;;;;;;;8.43;5.00;;;;;;;22.69;55.03;100662.19;1671381;85;27387;-66
2022/07/08 10:54:05;;;;;;;3.92;3.50;;;;;;;22.86;56.52;100656.59;1671164;85;27163;-66
2022/07/08 10:57:01;;;;;;;2.95;2.65;;;;;;;23.23;55.53;100651.52;1671388;85;25692;-67
2022/07/08 10:59:36;;;;;;;2.62;2.35;;;;;;;23.66;55.06;100650.30;1671399;85;25748;-66
2022/07/08 11:02:12;;;;;;;2.90;2.70;;;;;;;24.26;54.45;100647.47;1671314;85;25504;-65
2022/07/08 11:04:43;;;;;;;3.15;2.92;;;;;;;24.53;53.06;100654.77;1671425;85;27421;-66
2022/07/08 11:07:22;;;;;;;3.33;2.92;;;;;;;24.57;51.80;100665.28;1671295;85;25667;-66
2022/07/08 11:10:04;;;;;;;4.78;2.85;;;;;;;24.45;51.45;100673.95;1671392;85;25697;-67
2022/07/08 11:12:38;;;;;;;3.45;2.72;;;;;;;24.34;51.07;100671.77;1671392;85;25659;-65
2022/07/08 11:15:14;;;;;;;4.33;3.22;;;;;;;24.24;51.23;100674.11;1671377;85;25638;-66
2022/07/08 11:17:41;;;;;;;4.75;3.47;;;;;;;24.09;52.12;100699.36;1671346;85;26876;-65
2022/07/08 11:20:12;;;;;;;6.92;3.30;;;;;;;23.76;52.81;100703.98;1671222;85;25630;-65
2022/07/08 11:22:41;;;;;;;10.00;3.60;;;;;;;23.26;53.46;100715.59;1671379;85;25667;-70
2022/07/08 11:25:12;;;;;;;9.73;4.12;;;;;;;22.74;54.59;100708.11;1671270;85;25695;-69
2022/07/08 11:27:39;;;;;;;4.22;3.12;;;;;;;22.34;55.44;100695.19;1649624;85;25426;-68
2022/07/08 11:30:09;;;;;;;4.47;3.00;;;;;;;22.02;56.66;100683.23;1671297;85;27537;-69
2022/07/08 11:32:36;;;;;;;4.22;3.15;;;;;;;21.73;56.97;100682.13;1672971;84;25590;-68